createdAt,value
2018-01-10T00:00:10.116Z,97539.51
2018-01-10T00:00:41.770Z,97529.29
2018-01-10T00:01:13.426Z,97533.59
2018-01-10T00:01:45.118Z,97529.76
2018-01-10T00:02:16.779Z,97527.58
2018-01-10T00:02:48.434Z,97531.41
2018-01-10T00:03:20.090Z,97531.83
2018-01-10T00:03:51.747Z,97533.11
2018-01-10T00:04:23.397Z,97527.56
2018-01-10T00:04:55.091Z,97529.70
2018-01-10T00:05:26.750Z,97525.45
2018-01-10T00:05:58.405Z,97529.77
2018-01-10T00:06:30.062Z,97523.79
2018-01-10T00:07:01.718Z,97518.70
2018-01-10T00:07:33.413Z,97522.97
2018-01-10T00:08:05.073Z,97519.11
2018-01-10T00:08:36.730Z,97521.23
2018-01-10T00:09:08.386Z,97532.66
2018-01-10T00:09:40.077Z,97518.61
2018-01-10T00:10:11.730Z,97512.22
2018-01-10T00:10:43.378Z,97508.83
2018-01-10T00:11:15.039Z,97502.45
2018-01-10T00:11:46.698Z,97505.86
2018-01-10T00:12:18.355Z,97498.25
2018-01-10T00:12:50.010Z,97502.86
2018-01-10T00:13:21.699Z,97503.72
2018-01-10T00:13:53.358Z,97513.05
2018-01-10T00:14:25.015Z,97504.91
2018-01-10T00:14:56.662Z,97510.88
2018-01-10T00:15:28.450Z,97513.91
2018-01-10T00:16:00.107Z,97510.03
2018-01-10T00:16:31.757Z,97512.65
2018-01-10T00:17:03.462Z,97508.75
2018-01-10T00:17:35.117Z,97516.47
2018-01-10T00:18:06.775Z,97507.47
2018-01-10T00:18:38.426Z,97509.22
2018-01-10T00:19:10.082Z,97509.23
2018-01-10T00:19:41.819Z,97518.61
2018-01-10T00:20:13.470Z,97521.23
2018-01-10T00:20:45.127Z,97516.98
2018-01-10T00:21:16.784Z,97522.52
2018-01-10T00:21:48.446Z,97510.86
2018-01-10T00:22:20.152Z,97511.53
2018-01-10T00:22:51.806Z,97513.17
2018-01-10T00:23:23.458Z,97513.08
2018-01-10T00:23:55.120Z,97505.56
2018-01-10T00:24:26.772Z,97511.46
2018-01-10T00:24:58.422Z,97504.64
2018-01-10T00:25:30.070Z,97505.08
2018-01-10T00:26:01.727Z,97502.58
2018-01-10T00:26:33.378Z,97508.55
2018-01-10T00:27:05.030Z,97504.28
2018-01-10T00:27:36.727Z,97500.03
2018-01-10T00:28:08.378Z,97503.91
2018-01-10T00:28:40.030Z,97506.85
2018-01-10T00:29:11.684Z,97509.00
2018-01-10T00:29:43.338Z,97511.13
2018-01-10T00:30:14.997Z,97517.95
2018-01-10T00:30:46.691Z,97517.58
2018-01-10T00:31:18.346Z,97520.08
2018-01-10T00:31:50.006Z,97523.06
2018-01-10T00:32:21.662Z,97523.08
2018-01-10T00:32:53.363Z,97523.49
2018-01-10T00:33:25.019Z,97521.33
2018-01-10T00:33:56.674Z,97525.09
2018-01-10T00:34:28.330Z,97521.70
2018-01-10T00:34:59.982Z,97523.02
2018-01-10T00:35:31.634Z,97522.17
2018-01-10T00:36:03.281Z,97521.70
2018-01-10T00:36:34.934Z,97522.17
2018-01-10T00:37:06.592Z,97515.36
2018-01-10T00:37:38.242Z,97518.70
2018-01-10T00:38:09.978Z,97520.41
2018-01-10T00:38:41.706Z,97517.87
2018-01-10T00:39:13.363Z,97513.17
2018-01-10T00:39:45.018Z,97514.00
2018-01-10T00:40:16.671Z,97514.38
2018-01-10T00:40:48.396Z,97507.95
2018-01-10T00:41:20.046Z,97513.91
2018-01-10T00:41:51.694Z,97508.75
2018-01-10T00:42:23.342Z,97510.08
2018-01-10T00:42:54.993Z,97510.50
2018-01-10T00:43:26.690Z,97516.82
2018-01-10T00:43:58.346Z,97521.09
2018-01-10T00:44:30.003Z,97520.22
2018-01-10T00:45:01.658Z,97521.48
2018-01-10T00:45:33.390Z,97523.63
2018-01-10T00:46:05.057Z,97522.79
2018-01-10T00:46:36.714Z,97525.41
2018-01-10T00:47:08.371Z,97515.61
2018-01-10T00:47:40.026Z,97515.56
2018-01-10T00:48:11.687Z,97515.55
2018-01-10T00:48:43.334Z,97513.44
2018-01-10T00:49:15.042Z,97506.16
2018-01-10T00:49:46.704Z,97505.30
2018-01-10T00:50:18.358Z,97503.20
2018-01-10T00:50:50.216Z,97499.44
2018-01-10T00:51:21.874Z,97507.10
2018-01-10T00:51:53.525Z,97507.52
2018-01-10T00:52:25.179Z,97509.25
2018-01-10T00:52:56.829Z,97507.42
2018-01-10T00:53:28.486Z,97503.93
2018-01-10T00:54:00.138Z,97504.05
2018-01-10T00:54:31.830Z,97489.15
2018-01-10T00:55:03.531Z,97487.94
2018-01-10T00:55:35.190Z,97479.36
2018-01-10T00:56:06.846Z,97472.61
2018-01-10T00:56:38.499Z,97479.84
2018-01-10T00:57:10.153Z,97478.92
2018-01-10T00:57:41.802Z,97481.48
2018-01-10T00:58:13.454Z,97480.13
2018-01-10T00:58:45.106Z,97483.58
2018-01-10T00:59:16.762Z,97492.09
2018-01-10T00:59:48.410Z,97486.56
2018-01-10T01:00:20.111Z,97489.65
2018-01-10T01:00:51.766Z,97490.95
2018-01-10T01:01:23.418Z,97491.34
2018-01-10T01:01:55.118Z,97488.77
2018-01-10T01:02:26.770Z,97493.82
2018-01-10T01:02:58.426Z,97489.13
2018-01-10T01:03:30.082Z,97487.45
2018-01-10T01:04:01.739Z,97489.56
2018-01-10T01:04:33.394Z,97480.64
2018-01-10T01:05:05.042Z,97484.12
2018-01-10T01:05:36.699Z,97487.95
2018-01-10T01:06:08.386Z,97489.65
2018-01-10T01:06:40.043Z,97490.09
2018-01-10T01:07:11.742Z,97493.48
2018-01-10T01:07:43.394Z,97487.52
2018-01-10T01:08:15.139Z,97491.77
2018-01-10T01:08:46.798Z,97482.59
2018-01-10T01:09:18.454Z,97498.58
2018-01-10T01:09:50.107Z,97502.00
2018-01-10T01:10:21.757Z,97505.86
2018-01-10T01:10:53.447Z,97512.13
2018-01-10T01:11:25.102Z,97510.94
2018-01-10T01:11:56.810Z,97514.34
2018-01-10T01:12:28.467Z,97515.20
2018-01-10T01:13:00.118Z,97518.63
2018-01-10T01:13:31.770Z,97514.00
2018-01-10T01:14:03.425Z,97518.25
2018-01-10T01:14:35.098Z,97513.08
2018-01-10T01:15:06.771Z,97520.42
2018-01-10T01:15:38.430Z,97517.45
2018-01-10T01:16:10.091Z,97509.34
2018-01-10T01:16:41.745Z,97514.78
2018-01-10T01:17:13.453Z,97508.80
2018-01-10T01:17:45.101Z,97508.37
2018-01-10T01:18:16.754Z,97504.91
2018-01-10T01:18:48.414Z,97507.95
2018-01-10T01:19:20.067Z,97505.91
2018-01-10T01:19:51.726Z,97519.03
2018-01-10T01:20:23.382Z,97520.34
2018-01-10T01:20:55.038Z,97525.06
2018-01-10T01:21:26.689Z,97528.07
2018-01-10T01:21:58.337Z,97534.90
2018-01-10T01:22:30.030Z,97539.22
2018-01-10T01:23:01.688Z,97542.61
2018-01-10T01:23:33.338Z,97542.64
2018-01-10T01:24:04.985Z,97540.09
2018-01-10T01:24:36.693Z,97537.53
2018-01-10T01:25:08.350Z,97544.34
2018-01-10T01:25:39.997Z,97539.17
2018-01-10T01:26:11.651Z,97539.17
2018-01-10T01:26:43.307Z,97537.02
2018-01-10T01:27:14.960Z,97532.78
2018-01-10T01:27:46.614Z,97528.99
2018-01-10T01:28:18.375Z,97534.53
2018-01-10T01:28:50.026Z,97536.66
2018-01-10T01:29:21.678Z,97520.84
2018-01-10T01:29:53.375Z,97523.46
2018-01-10T01:30:25.031Z,97525.61
2018-01-10T01:30:56.721Z,97514.63
2018-01-10T01:31:28.370Z,97512.05
2018-01-10T01:32:00.029Z,97513.33
2018-01-10T01:32:31.681Z,97510.42
2018-01-10T01:33:03.330Z,97512.14
2018-01-10T01:33:35.026Z,97506.52
2018-01-10T01:34:06.678Z,97504.73
2018-01-10T01:34:38.334Z,97495.77
2018-01-10T01:35:09.990Z,97503.78
2018-01-10T01:35:41.642Z,97499.71
2018-01-10T01:36:13.294Z,97498.25
2018-01-10T01:36:44.945Z,97496.98
2018-01-10T01:37:16.642Z,97493.20
2018-01-10T01:37:48.293Z,97493.37
2018-01-10T01:38:19.950Z,97491.20
2018-01-10T01:38:51.606Z,97475.16
2018-01-10T01:39:23.258Z,97491.53
2018-01-10T01:39:54.957Z,97486.33
2018-01-10T01:40:26.606Z,97482.03
2018-01-10T01:40:58.263Z,97474.72
2018-01-10T01:41:29.918Z,97470.37
2018-01-10T01:42:01.574Z,97474.19
2018-01-10T01:42:33.222Z,97479.59
2018-01-10T01:43:04.879Z,97476.06
2018-01-10T01:43:36.534Z,97478.69
2018-01-10T01:44:08.459Z,97484.70
2018-01-10T01:44:40.122Z,97492.34
2018-01-10T01:45:11.773Z,97501.97
2018-01-10T01:45:43.430Z,97508.17
2018-01-10T01:46:15.082Z,97511.22
2018-01-10T01:46:46.737Z,97515.47
2018-01-10T01:47:18.434Z,97519.66
2018-01-10T01:47:50.086Z,97515.59
2018-01-10T01:48:21.742Z,97511.84
2018-01-10T01:48:53.398Z,97508.59
2018-01-10T01:49:25.054Z,97501.49
2018-01-10T01:49:56.706Z,97489.70
2018-01-10T01:50:28.355Z,97476.71
2018-01-10T01:51:00.052Z,97466.17
2018-01-10T01:51:31.704Z,97464.09
2018-01-10T01:52:03.354Z,97455.33
2018-01-10T01:52:35.002Z,97457.81
2018-01-10T01:53:06.711Z,97465.38
2018-01-10T01:53:38.402Z,97465.78
2018-01-10T01:54:10.054Z,97461.90
2018-01-10T01:54:41.706Z,97461.90
2018-01-10T01:55:13.353Z,97463.22
2018-01-10T01:55:45.011Z,97462.81
2018-01-10T01:56:16.666Z,97467.01
2018-01-10T01:56:48.323Z,97470.72
2018-01-10T01:57:20.077Z,97472.41
2018-01-10T01:57:51.734Z,97474.86
2018-01-10T01:58:23.384Z,97474.41
2018-01-10T01:58:55.081Z,97478.54
2018-01-10T01:59:26.778Z,97476.75
2018-01-10T01:59:58.437Z,97475.82
2018-01-10T02:00:30.138Z,97474.87
2018-01-10T02:01:01.785Z,97473.91
2018-01-10T02:01:33.438Z,97469.98
2018-01-10T02:02:05.096Z,97472.44
2018-01-10T02:02:36.750Z,97468.19
2018-01-10T02:03:08.401Z,97469.33
2018-01-10T02:03:40.054Z,97464.60
2018-01-10T02:04:11.710Z,97461.89
2018-01-10T02:04:43.366Z,97466.94
2018-01-10T02:05:15.014Z,97463.42
2018-01-10T02:05:46.706Z,97463.83
2018-01-10T02:06:18.362Z,97465.82
2018-01-10T02:06:50.064Z,97461.89
2018-01-10T02:07:21.705Z,97461.03
2018-01-10T02:07:53.353Z,97456.31
2018-01-10T02:08:25.006Z,97457.04
2018-01-10T02:08:56.653Z,97459.47
2018-01-10T02:09:28.307Z,97464.38
2018-01-10T02:09:59.957Z,97465.93
2018-01-10T02:10:31.614Z,97469.70
2018-01-10T02:11:03.305Z,97472.67
2018-01-10T02:11:34.962Z,97471.06
2018-01-10T02:12:06.619Z,97473.52
2018-01-10T02:12:38.294Z,97467.80
2018-01-10T02:13:10.034Z,97462.69
2018-01-10T02:13:41.685Z,97463.84
2018-01-10T02:14:13.342Z,97453.64
2018-01-10T02:14:44.999Z,97451.19
2018-01-10T02:15:16.653Z,97448.27
2018-01-10T02:15:48.342Z,97444.37
2018-01-10T02:16:19.994Z,97441.34
2018-01-10T02:16:51.686Z,97448.92
2018-01-10T02:17:23.342Z,97454.87
2018-01-10T02:17:55.042Z,97456.97
2018-01-10T02:18:26.731Z,97461.22
2018-01-10T02:18:58.388Z,97462.98
2018-01-10T02:19:30.038Z,97475.27
2018-01-10T02:20:01.692Z,97476.08
2018-01-10T02:20:33.443Z,97468.88
2018-01-10T02:21:05.093Z,97470.95
2018-01-10T02:21:36.742Z,97473.11
2018-01-10T02:22:08.390Z,97464.15
2018-01-10T02:22:40.042Z,97470.42
2018-01-10T02:23:11.733Z,97472.63
2018-01-10T02:23:43.390Z,97478.27
2018-01-10T02:24:15.047Z,97484.33
2018-01-10T02:24:46.707Z,97497.87
2018-01-10T02:25:18.366Z,97504.38
2018-01-10T02:25:50.061Z,97501.87
2018-01-10T02:26:21.718Z,97508.30
2018-01-10T02:26:53.365Z,97505.38
2018-01-10T02:27:25.023Z,97512.22
2018-01-10T02:28:01.529Z,97508.80
2018-01-10T02:28:33.181Z,97508.46
2018-01-10T02:29:04.834Z,97505.05
2018-01-10T02:29:36.490Z,97502.08
2018-01-10T02:30:08.152Z,97492.72
2018-01-10T02:30:39.849Z,97490.66
2018-01-10T02:31:11.590Z,97488.59
2018-01-10T02:31:43.315Z,97492.02
2018-01-10T02:32:14.970Z,97483.00
2018-01-10T02:32:46.621Z,97497.40
2018-01-10T02:33:18.270Z,97494.09
2018-01-10T02:33:49.926Z,97498.02
2018-01-10T02:34:21.578Z,97501.47
2018-01-10T02:34:53.230Z,97501.55
2018-01-10T02:35:24.878Z,97501.08
2018-01-10T02:35:56.589Z,97501.94
2018-01-10T02:36:28.281Z,97501.07
2018-01-10T02:36:59.930Z,97489.13
2018-01-10T02:37:31.655Z,97497.22
2018-01-10T02:38:03.310Z,97489.56
2018-01-10T02:38:34.962Z,97484.95
2018-01-10T02:39:06.623Z,97490.92
2018-01-10T02:39:38.278Z,97484.56
2018-01-10T02:40:09.930Z,97480.81
2018-01-10T02:40:41.586Z,97483.77
2018-01-10T02:41:13.294Z,97488.41
2018-01-10T02:41:45.033Z,97486.77
2018-01-10T02:42:16.690Z,97490.15
2018-01-10T02:42:48.338Z,97485.48
2018-01-10T02:43:19.996Z,97490.68
2018-01-10T02:43:51.645Z,97486.91
2018-01-10T02:44:23.297Z,97485.23
2018-01-10T02:44:54.954Z,97483.13
2018-01-10T02:45:26.610Z,97477.66
2018-01-10T02:45:58.266Z,97486.15
2018-01-10T02:46:29.957Z,97479.26
2018-01-10T02:47:01.614Z,97492.03
2018-01-10T02:47:33.270Z,97486.00
2018-01-10T02:48:04.927Z,97482.67
2018-01-10T02:48:36.578Z,97479.76
2018-01-10T02:49:08.238Z,97486.62
2018-01-10T02:49:39.890Z,97476.47
2018-01-10T02:50:11.543Z,97479.88
2018-01-10T02:50:43.198Z,97473.55
2018-01-10T02:51:14.894Z,97469.71
2018-01-10T02:51:46.546Z,97477.31
2018-01-10T02:52:18.203Z,97468.80
2018-01-10T02:52:49.991Z,97472.64
2018-01-10T02:53:21.646Z,97478.25
2018-01-10T02:53:53.293Z,97477.38
2018-01-10T02:54:25.062Z,97478.61
2018-01-10T02:54:56.719Z,97472.70
2018-01-10T02:55:28.370Z,97469.31
2018-01-10T02:56:00.025Z,97471.02
2018-01-10T02:56:31.686Z,97463.84
2018-01-10T02:57:03.339Z,97454.94
2018-01-10T02:57:34.994Z,97459.51
2018-01-10T02:58:06.691Z,97455.71
2018-01-10T02:58:38.343Z,97457.03
2018-01-10T02:59:10.000Z,97455.77
2018-01-10T02:59:41.658Z,97457.05
2018-01-10T03:00:13.388Z,97458.41
2018-01-10T03:00:45.038Z,97458.86
2018-01-10T03:01:16.694Z,97465.66
2018-01-10T03:01:48.345Z,97465.21
2018-01-10T03:02:19.994Z,97469.92
2018-01-10T03:02:51.642Z,97463.61
2018-01-10T03:03:23.290Z,97469.59
2018-01-10T03:03:54.946Z,97464.92
2018-01-10T03:04:26.604Z,97454.77
2018-01-10T03:04:58.266Z,97453.92
2018-01-10T03:05:29.958Z,97447.94
2018-01-10T03:06:01.906Z,97440.65
2018-01-10T03:06:33.561Z,97437.30
2018-01-10T03:07:05.214Z,97440.30
2018-01-10T03:07:36.865Z,97433.92
2018-01-10T03:08:08.522Z,97437.31
2018-01-10T03:08:40.178Z,97443.27
2018-01-10T03:09:11.834Z,97432.71
2018-01-10T03:09:43.490Z,97443.70
2018-01-10T03:10:15.142Z,97444.05
2018-01-10T03:10:46.796Z,97451.70
2018-01-10T03:11:18.455Z,97445.32
2018-01-10T03:11:50.105Z,97450.48
2018-01-10T03:12:21.794Z,97445.80
2018-01-10T03:12:53.499Z,97450.93
2018-01-10T03:13:25.194Z,97442.92
2018-01-10T03:13:56.841Z,97440.73
2018-01-10T03:14:28.498Z,97443.28
2018-01-10T03:15:00.220Z,97433.05
2018-01-10T03:15:31.874Z,97436.43
2018-01-10T03:16:03.530Z,97433.89
2018-01-10T03:16:35.182Z,97424.98
2018-01-10T03:17:06.907Z,97426.73
2018-01-10T03:17:38.562Z,97427.16
2018-01-10T03:18:10.270Z,97425.87
2018-01-10T03:18:41.922Z,97427.20
2018-01-10T03:19:13.579Z,97416.88
2018-01-10T03:19:45.230Z,97421.14
2018-01-10T03:20:16.886Z,97430.08
2018-01-10T03:20:48.547Z,97423.31
2018-01-10T03:21:20.198Z,97419.48
2018-01-10T03:21:51.845Z,97420.20
2018-01-10T03:22:23.506Z,97419.44
2018-01-10T03:22:55.158Z,97415.23
2018-01-10T03:23:26.853Z,97407.52
2018-01-10T03:23:58.506Z,97410.05
2018-01-10T03:24:30.158Z,97408.34
2018-01-10T03:25:01.862Z,97406.67
2018-01-10T03:25:33.518Z,97405.03
2018-01-10T03:26:05.175Z,97405.48
2018-01-10T03:26:36.898Z,97406.75
2018-01-10T03:27:08.555Z,97403.35
2018-01-10T03:27:40.206Z,97403.79
2018-01-10T03:28:11.858Z,97410.59
2018-01-10T03:28:43.514Z,97410.59
2018-01-10T03:29:15.171Z,97414.33
2018-01-10T03:29:46.826Z,97412.67
2018-01-10T03:30:18.483Z,97427.92
2018-01-10T03:30:50.148Z,97430.50
2018-01-10T03:31:21.851Z,97431.84
2018-01-10T03:31:53.510Z,97435.67
2018-01-10T03:32:25.202Z,97444.98
2018-01-10T03:32:56.854Z,97449.64
2018-01-10T03:33:28.502Z,97450.92
2018-01-10T03:34:00.159Z,97453.50
2018-01-10T03:34:31.810Z,97451.85
2018-01-10T03:35:03.482Z,97460.23
2018-01-10T03:35:35.138Z,97457.72
2018-01-10T03:36:06.790Z,97458.09
2018-01-10T03:36:38.505Z,97453.47
2018-01-10T03:37:10.242Z,97447.09
2018-01-10T03:37:41.894Z,97453.91
2018-01-10T03:38:13.548Z,97451.01
2018-01-10T03:38:45.197Z,97449.73
2018-01-10T03:39:16.846Z,97451.01
2018-01-10T03:39:48.497Z,97450.58
2018-01-10T03:40:20.154Z,97447.67
2018-01-10T03:40:51.812Z,97448.55
2018-01-10T03:41:23.461Z,97448.98
2018-01-10T03:41:55.158Z,97447.72
2018-01-10T03:42:26.859Z,97454.09
2018-01-10T03:42:58.515Z,97454.50
2018-01-10T03:43:30.166Z,97459.17
2018-01-10T03:44:01.926Z,97462.10
2018-01-10T03:44:33.714Z,97468.97
2018-01-10T03:45:05.475Z,97475.30
2018-01-10T03:45:37.127Z,97479.05
2018-01-10T03:46:08.782Z,97484.16
2018-01-10T03:46:40.434Z,97479.03
2018-01-10T03:47:12.164Z,97492.58
2018-01-10T03:47:43.854Z,97481.15
2018-01-10T03:48:15.516Z,97488.39
2018-01-10T03:48:47.176Z,97490.52
2018-01-10T03:49:18.870Z,97483.70
2018-01-10T03:49:50.526Z,97489.61
2018-01-10T03:50:22.178Z,97493.00
2018-01-10T03:50:53.830Z,97492.13
2018-01-10T03:51:25.486Z,97489.58
2018-01-10T03:51:57.145Z,97489.94
2018-01-10T03:52:28.794Z,97493.73
2018-01-10T03:53:00.450Z,97491.60
2018-01-10T03:53:32.349Z,97490.34
2018-01-10T03:54:04.055Z,97495.88
2018-01-10T03:54:35.770Z,97500.58
2018-01-10T03:55:07.425Z,97506.54
2018-01-10T03:55:39.121Z,97509.08
2018-01-10T03:56:10.769Z,97507.38
2018-01-10T03:56:42.426Z,97513.34
2018-01-10T03:57:14.082Z,97515.06
2018-01-10T03:57:45.738Z,97523.97
2018-01-10T03:58:17.394Z,97520.92
2018-01-10T03:58:49.154Z,97524.22
2018-01-10T03:59:20.806Z,97525.03
2018-01-10T03:59:52.506Z,97525.45
2018-01-10T04:00:24.158Z,97521.61
2018-01-10T04:00:55.842Z,97518.21
2018-01-10T04:01:27.494Z,97521.20
2018-01-10T04:01:59.142Z,97519.92
2018-01-10T04:02:30.794Z,97510.55
2018-01-10T04:03:02.450Z,97511.41
2018-01-10T04:07:58.587Z,97506.00
2018-01-10T04:08:30.233Z,97500.89
2018-01-10T04:09:01.882Z,97509.77
2018-01-10T04:09:33.533Z,97510.61
2018-01-10T04:10:05.229Z,97505.92
2018-01-10T04:10:36.877Z,97513.58
2018-01-10T04:11:08.525Z,97509.25
2018-01-10T04:11:40.173Z,97516.94
2018-01-10T04:12:11.817Z,97520.30
2018-01-10T04:12:43.461Z,97530.39
2018-01-10T04:13:15.109Z,97525.33
2018-01-10T04:13:46.798Z,97527.84
2018-01-10T04:14:18.434Z,97526.11
2018-01-10T04:14:50.080Z,97527.41
2018-01-10T04:15:21.881Z,97531.33
2018-01-10T04:15:53.605Z,97528.77
2018-01-10T04:16:25.253Z,97524.16
2018-01-10T04:16:56.901Z,97527.98
2018-01-10T04:17:28.553Z,97525.36
2018-01-10T04:20:31.822Z,97532.25
2018-01-10T04:21:03.474Z,97528.01
2018-01-10T04:21:35.121Z,97534.79
2018-01-10T04:22:06.770Z,97531.33
2018-01-10T04:22:38.422Z,97524.13
2018-01-10T04:23:10.078Z,97531.03
2018-01-10T04:23:41.734Z,97524.64
2018-01-10T04:24:13.389Z,97526.72
2018-01-10T04:24:45.038Z,97526.28
2018-01-10T04:25:16.690Z,97525.02
2018-01-10T04:25:48.381Z,97526.30
2018-01-10T04:26:20.089Z,97526.31
2018-01-10T04:26:51.742Z,97523.37
2018-01-10T04:27:23.394Z,97526.28
2018-01-10T04:27:55.042Z,97527.55
2018-01-10T04:28:26.693Z,97525.84
2018-01-10T04:28:58.342Z,97525.44
2018-01-10T04:29:29.990Z,97525.92
2018-01-10T04:30:01.683Z,97522.11
2018-01-10T04:30:33.341Z,97525.55
2018-01-10T04:31:04.998Z,97519.66
2018-01-10T04:31:36.698Z,97525.61
2018-01-10T04:32:08.354Z,97526.03
2018-01-10T04:32:40.013Z,97523.06
2018-01-10T04:33:11.690Z,97529.88
2018-01-10T04:33:43.394Z,97529.00
2018-01-10T04:34:15.051Z,97528.15
2018-01-10T04:34:46.701Z,97529.44
2018-01-10T04:35:18.358Z,97530.73
2018-01-10T04:35:50.016Z,97526.11
2018-01-10T04:36:21.674Z,97524.41
2018-01-10T04:36:53.330Z,97529.97
2018-01-10T04:37:24.988Z,97530.81
2018-01-10T04:37:56.637Z,97519.28
2018-01-10T04:38:28.294Z,97523.16
2018-01-10T04:38:59.994Z,97521.49
2018-01-10T04:39:31.650Z,97515.92
2018-01-10T04:40:03.302Z,97523.22
2018-01-10T04:40:34.953Z,97518.95
2018-01-10T04:41:06.702Z,97522.80
2018-01-10T04:41:38.349Z,97522.39
2018-01-10T04:42:10.003Z,97523.66
2018-01-10T04:42:41.685Z,97513.45
2018-01-10T04:43:13.354Z,97512.31
2018-01-10T04:43:45.038Z,97515.38
2018-01-10T04:44:16.738Z,97514.04
2018-01-10T04:44:48.394Z,97510.59
2018-01-10T04:45:20.050Z,97508.41
2018-01-10T04:45:51.701Z,97507.23
2018-01-10T04:46:23.351Z,97512.33
2018-01-10T04:46:55.006Z,97510.20
2018-01-10T04:47:26.663Z,97504.89
2018-01-10T04:47:58.314Z,97517.02
2018-01-10T04:48:30.008Z,97523.84
2018-01-10T04:49:01.658Z,97532.42
2018-01-10T04:49:33.305Z,97532.02
2018-01-10T04:50:04.963Z,97536.74
2018-01-10T04:50:36.618Z,97535.98
2018-01-10T04:51:08.274Z,97532.91
2018-01-10T04:51:39.929Z,97533.34
2018-01-10T04:52:11.585Z,97534.20
2018-01-10T04:52:43.242Z,97527.38
2018-01-10T04:53:14.902Z,97524.39
2018-01-10T04:53:46.598Z,97520.94
2018-01-10T04:54:18.254Z,97517.62
2018-01-10T04:54:49.974Z,97519.31
2018-01-10T04:55:21.629Z,97518.09
2018-01-10T04:55:53.286Z,97513.06
2018-01-10T04:56:24.941Z,97515.21
2018-01-10T04:56:56.634Z,97518.64
2018-01-10T04:57:28.285Z,97517.34
2018-01-10T04:57:59.937Z,97520.30
2018-01-10T04:58:31.729Z,97519.05
2018-01-10T04:59:03.393Z,97520.74
2018-01-10T04:59:35.046Z,97518.25
2018-01-10T05:00:06.702Z,97510.96
2018-01-10T05:00:38.402Z,97508.03
2018-01-10T05:01:10.059Z,97505.50
2018-01-10T05:01:41.762Z,97498.27
2018-01-10T05:02:13.474Z,97492.73
2018-01-10T05:02:45.099Z,97492.72
2018-01-10T05:03:16.725Z,97492.24
2018-01-10T05:03:48.382Z,97486.77
2018-01-10T05:04:20.010Z,97487.62
2018-01-10T05:04:51.639Z,97485.57
2018-01-10T05:05:23.265Z,97491.95
2018-01-10T05:05:54.903Z,97485.62
2018-01-10T05:06:26.577Z,97483.95
2018-01-10T05:06:58.197Z,97489.03
2018-01-10T05:07:29.818Z,97487.78
2018-01-10T05:08:01.441Z,97486.08
2018-01-10T05:08:33.070Z,97482.33
2018-01-10T05:09:04.690Z,97482.75
2018-01-10T05:09:36.309Z,97481.45
2018-01-10T05:10:07.934Z,97476.36
2018-01-10T05:10:39.562Z,97480.67
2018-01-10T05:11:11.253Z,97475.22
2018-01-10T05:11:42.938Z,97474.39
2018-01-10T05:12:14.571Z,97475.67
2018-01-10T05:12:46.198Z,97475.77
2018-01-10T05:13:17.826Z,97476.62
2018-01-10T05:13:49.454Z,97473.20
2018-01-10T05:14:21.078Z,97445.60
2018-01-10T05:14:52.758Z,97471.17
2018-01-10T05:15:24.378Z,97466.11
2018-01-10T05:15:56.010Z,97467.38
2018-01-10T05:16:27.642Z,97465.20
2018-01-10T05:16:59.266Z,97460.53
2018-01-10T05:17:30.894Z,97463.05
2018-01-10T05:18:02.522Z,97466.50
2018-01-10T05:18:34.170Z,97455.94
2018-01-10T05:19:05.794Z,97452.52
2018-01-10T05:19:37.422Z,97452.84
2018-01-10T05:20:09.093Z,97455.17
2018-01-10T05:20:40.765Z,97450.95
2018-01-10T05:21:12.394Z,97452.19
2018-01-10T05:21:44.018Z,97445.35
2018-01-10T05:22:15.642Z,97453.38
2018-01-10T05:22:47.270Z,97450.79
2018-01-10T05:23:18.894Z,97450.73
2018-01-10T05:23:50.518Z,97449.05
2018-01-10T05:24:22.150Z,97448.16
2018-01-10T05:24:53.778Z,97442.99
2018-01-10T05:25:25.450Z,97438.30
2018-01-10T05:25:57.074Z,97439.48
2018-01-10T05:26:28.702Z,97429.70
2018-01-10T05:27:00.325Z,97436.06
2018-01-10T05:27:31.950Z,97439.07
2018-01-10T05:28:03.582Z,97435.18
2018-01-10T05:28:35.209Z,97437.73
2018-01-10T05:29:06.838Z,97436.42
2018-01-10T05:29:38.466Z,97443.59
2018-01-10T05:30:10.130Z,97450.81
2018-01-10T05:30:41.745Z,97449.12
2018-01-10T05:31:13.366Z,97450.75
2018-01-10T05:31:44.998Z,97454.92
2018-01-10T05:32:16.632Z,97454.98
2018-01-10T05:32:48.258Z,97451.08
2018-01-10T05:33:19.882Z,97452.70
2018-01-10T05:33:51.505Z,97446.38
2018-01-10T05:34:23.134Z,97442.92
2018-01-10T05:34:54.758Z,97448.88
2018-01-10T05:35:26.421Z,97446.70
2018-01-10T05:35:58.050Z,97446.70
2018-01-10T05:36:29.679Z,97449.67
2018-01-10T05:37:01.350Z,97451.26
2018-01-10T05:37:32.979Z,97446.93
2018-01-10T05:38:04.602Z,97453.64
2018-01-10T05:38:36.234Z,97454.86
2018-01-10T05:39:07.862Z,97459.03
2018-01-10T05:39:39.486Z,97451.62
2018-01-10T05:40:11.120Z,97463.55
2018-01-10T05:40:42.742Z,97466.40
2018-01-10T05:41:14.361Z,97467.70
2018-01-10T05:41:45.990Z,97463.34
2018-01-10T05:42:17.658Z,97464.14
2018-01-10T05:42:49.287Z,97463.69
2018-01-10T05:43:20.914Z,97460.70
2018-01-10T05:43:52.539Z,97466.14
2018-01-10T05:44:24.162Z,97468.60
2018-01-10T05:44:55.791Z,97469.31
2018-01-10T05:45:27.427Z,97475.67
2018-01-10T05:45:59.062Z,97472.21
2018-01-10T05:46:30.686Z,97473.54
2018-01-10T05:47:02.318Z,97473.88
2018-01-10T05:47:34.611Z,97475.95
2018-01-10T05:48:06.237Z,97474.83
2018-01-10T05:48:37.866Z,97474.84
2018-01-10T05:49:09.494Z,97474.00
2018-01-10T05:49:41.174Z,97473.11
2018-01-10T05:50:12.806Z,97474.33
2018-01-10T05:50:44.434Z,97477.81
2018-01-10T05:51:16.058Z,97475.28
2018-01-10T05:51:47.686Z,97474.50
2018-01-10T05:52:19.314Z,97474.09
2018-01-10T05:52:50.947Z,97473.23
2018-01-10T05:53:22.610Z,97480.88
2018-01-10T05:53:54.221Z,97480.52
2018-01-10T05:54:25.855Z,97480.55
2018-01-10T05:54:57.526Z,97484.73
2018-01-10T05:55:29.166Z,97483.08
2018-01-10T05:56:00.795Z,97487.88
2018-01-10T05:56:32.427Z,97488.73
2018-01-10T05:57:04.055Z,97499.80
2018-01-10T05:57:35.683Z,97498.53
2018-01-10T05:58:07.314Z,97493.39
2018-01-10T05:58:38.977Z,97499.30
2018-01-10T05:59:10.598Z,97490.00
2018-01-10T05:59:42.227Z,97501.51
2018-01-10T06:00:13.850Z,97503.22
2018-01-10T06:00:45.469Z,97500.66
2018-01-10T06:01:17.089Z,97501.95
2018-01-10T06:01:48.714Z,97500.73
2018-01-10T06:02:20.337Z,97504.56
2018-01-10T06:02:51.958Z,97495.28
2018-01-10T06:03:23.587Z,97501.23
2018-01-10T06:03:55.297Z,97502.95
2018-01-10T06:04:26.913Z,97497.00
2018-01-10T06:04:58.533Z,97495.02
2018-01-10T06:05:30.242Z,97498.42
2018-01-10T06:06:01.871Z,97498.38
2018-01-10T06:06:33.498Z,97497.50
2018-01-10T06:07:05.126Z,97498.36
2018-01-10T06:07:36.758Z,97505.53
2018-01-10T06:08:08.386Z,97496.59
2018-01-10T06:08:40.010Z,97508.14
2018-01-10T06:09:11.638Z,97507.81
2018-01-10T06:09:43.266Z,97503.97
2018-01-10T06:10:14.894Z,97505.68
2018-01-10T06:10:46.561Z,97508.64
2018-01-10T06:11:18.262Z,97508.23
2018-01-10T06:11:49.891Z,97505.67
2018-01-10T06:12:21.514Z,97505.27
2018-01-10T06:12:53.142Z,97503.66
2018-01-10T06:13:24.770Z,97501.95
2018-01-10T06:13:56.394Z,97506.54
2018-01-10T06:14:28.019Z,97503.13
2018-01-10T06:14:59.646Z,97509.11
2018-01-10T06:15:31.270Z,97512.89
2018-01-10T06:16:02.934Z,97516.26
2018-01-10T06:16:34.557Z,97514.55
2018-01-10T06:17:06.186Z,97517.15
2018-01-10T06:17:37.805Z,97516.32
2018-01-10T06:18:09.429Z,97518.05
2018-01-10T06:18:41.053Z,97518.11